Time;durP1;ratioP1;P1;durP2;ratioP2;P2;SDS_P1;SDS_P2;PMS_P1;PMS_P2;Temp;Humidity;BMP_temperature;BMP_pressure;BME280_temperature;BME280_humidity;BME280_pressure;Samples;Min_cycle;Max_cycle;Signal;HPM_P1;HPM_P2
2022/03/04 00:02:21;;;;;;;18.40;11.85;;;4.00;99.90;;;;;;4904367;29;20031;-91
2022/03/04 00:04:46;;;;;;;17.98;10.95;;;3.90;99.90;;;;;;4904306;29;20506;-89
2022/03/04 00:07:12;;;;;;;18.02;11.27;;;3.90;99.90;;;;;;4903822;29;20678;-90
2022/03/04 00:09:38;;;;;;;22.48;13.43;;;3.90;99.90;;;;;;4903704;29;20040;-89
2022/03/04 00:12:07;;;;;;;20.80;12.68;;;3.90;99.90;;;;;;4903690;29;20091;-90
2022/03/04 00:14:33;;;;;;;21.52;12.75;;;3.80;99.90;;;;;;4903646;29;20028;-90
2022/03/04 00:17:01;;;;;;;19.40;12.35;;;3.80;99.90;;;;;;4904282;29;20054;-91
2022/03/04 00:19:26;;;;;;;16.55;10.85;;;3.80;99.90;;;;;;4903639;29;20040;-90
2022/03/04 00:21:52;;;;;;;16.98;11.80;;;3.80;99.90;;;;;;4905790;29;20042;-91
2022/03/04 00:24:20;;;;;;;18.45;10.80;;;3.80;99.90;;;;;;4907415;29;20042;-90
2022/03/04 00:26:47;;;;;;;17.33;11.55;;;3.70;99.90;;;;;;4919632;29;20038;-90
2022/03/04 00:29:13;;;;;;;17.45;11.52;;;3.70;99.90;;;;;;4917585;29;20060;-90
2022/03/04 00:31:40;;;;;;;16.35;11.30;;;3.60;99.90;;;;;;4917696;29;20051;-90
2022/03/04 00:34:06;;;;;;;17.38;11.38;;;3.60;99.90;;;;;;4917662;29;20043;-89
2022/03/04 00:36:40;;;;;;;16.50;10.55;;;3.60;99.90;;;;;;4917959;29;20046;-90
2022/03/04 00:39:06;;;;;;;;;;;3.50;99.90;;;;;;4918408;29;20040;-89
2022/03/04 00:41:32;;;;;;;14.88;9.50;;;3.50;99.90;;;;;;4919413;29;19917;-90
2022/03/04 00:43:58;;;;;;;15.70;9.27;;;3.50;99.90;;;;;;4934426;29;20040;-90
2022/03/04 00:46:24;;;;;;;15.40;9.45;;;3.40;99.90;;;;;;4919020;29;20438;-90
2022/03/04 00:48:50;;;;;;;17.02;10.77;;;3.40;99.90;;;;;;4935061;29;20039;-90
2022/03/04 00:51:15;;;;;;;18.88;10.98;;;3.40;99.90;;;;;;4919863;29;20413;-90
2022/03/04 00:53:42;;;;;;;17.77;11.27;;;3.30;99.90;;;;;;4917533;29;20094;-89
2022/03/04 00:56:09;;;;;;;19.38;12.50;;;3.30;99.90;;;;;;4900498;29;20039;-90
2022/03/04 00:58:35;;;;;;;19.13;11.95;;;3.20;99.90;;;;;;4900194;29;20044;-90
2022/03/04 01:01:02;;;;;;;18.23;11.45;;;3.20;99.90;;;;;;4901054;29;20115;-91
2022/03/04 01:03:28;;;;;;;18.02;11.07;;;3.20;99.90;;;;;;4899789;29;20043;-90
2022/03/04 01:05:54;;;;;;;17.83;10.65;;;3.20;99.90;;;;;;4900009;29;20060;-89
2022/03/04 01:08:20;;;;;;;18.75;10.95;;;3.20;99.90;;;;;;4898956;29;20486;-90
2022/03/04 01:10:45;;;;;;;17.75;10.93;;;3.10;99.90;;;;;;4901027;29;20032;-89
2022/03/04 01:13:11;;;;;;;18.02;10.20;;;3.10;99.90;;;;;;4900415;29;20728;-87
2022/03/04 01:15:38;;;;;;;20.83;11.80;;;3.10;99.90;;;;;;4897427;29;20035;-88
2022/03/04 01:18:04;;;;;;;17.58;10.77;;;3.00;99.90;;;;;;4896562;29;20040;-86
2022/03/04 01:20:31;;;;;;;18.13;10.63;;;3.00;99.90;;;;;;4896053;29;20043;-88
2022/03/04 01:22:57;;;;;;;17.55;10.90;;;3.00;99.90;;;;;;4903816;29;20043;-87
2022/03/04 01:25:22;;;;;;;16.73;11.02;;;3.00;99.90;;;;;;4901317;29;20134;-88
2022/03/04 01:27:48;;;;;;;18.52;10.75;;;2.90;99.90;;;;;;4897023;29;20037;-89
2022/03/04 01:30:14;;;;;;;18.35;10.80;;;2.90;99.90;;;;;;4901924;29;20592;-89
2022/03/04 01:32:40;;;;;;;16.63;10.55;;;2.90;99.90;;;;;;4896744;29;20111;-88
2022/03/04 01:35:08;;;;;;;18.13;11.30;;;2.90;99.90;;;;;;4881012;29;20060;-88
2022/03/04 01:37:34;;;;;;;17.52;10.27;;;2.80;99.90;;;;;;4882088;29;20079;-89
2022/03/04 01:40:00;;;;;;;17.92;10.80;;;2.80;99.90;;;;;;4880770;29;20033;-89
2022/03/04 01:42:25;;;;;;;18.17;11.10;;;2.80;99.90;;;;;;4884849;29;20037;-88
2022/03/04 01:44:51;;;;;;;20.05;11.60;;;2.80;99.90;;;;;;4881993;29;20508;-90
2022/03/04 01:47:17;;;;;;;21.05;12.07;;;2.80;99.90;;;;;;4884154;29;20037;-88
2022/03/04 01:49:43;;;;;;;18.88;11.35;;;2.70;99.90;;;;;;4904612;29;20114;-89
2022/03/04 01:52:08;;;;;;;18.98;11.68;;;2.70;99.90;;;;;;4899991;29;20444;-89
2022/03/04 01:54:35;;;;;;;19.35;11.88;;;2.70;99.90;;;;;;4924936;29;20427;-89
2022/03/04 01:57:01;;;;;;;17.83;10.65;;;2.70;99.90;;;;;;4926340;29;20035;-91
2022/03/04 01:59:27;;;;;;;17.38;11.02;;;2.70;99.90;;;;;;4904176;29;20449;-88
2022/03/04 02:01:53;;;;;;;17.60;10.73;;;2.70;99.90;;;;;;4902502;29;20140;-89
2022/03/04 02:04:23;;;;;;;18.30;11.43;;;2.70;99.90;;;;;;4898027;29;20028;-92
2022/03/04 02:06:49;;;;;;;18.98;11.00;;;2.70;99.90;;;;;;4898432;29;20112;-91
2022/03/04 02:09:16;;;;;;;17.98;10.23;;;2.60;99.90;;;;;;4897491;29;20490;-91
2022/03/04 02:11:43;;;;;;;17.23;10.38;;;2.60;99.90;;;;;;4896996;29;20414;-88
2022/03/04 02:14:10;;;;;;;19.45;11.30;;;2.60;99.90;;;;;;4881175;29;20029;-90
2022/03/04 02:16:43;;;;;;;24.40;13.93;;;2.50;99.90;;;;;;4898639;29;20049;-89
2022/03/04 02:19:09;;;;;;;;;;;2.60;99.90;;;;;;4899374;29;20099;-91
2022/03/04 02:21:35;;;;;;;20.00;10.20;;;2.50;99.90;;;;;;4883228;29;20378;-89
2022/03/04 02:24:01;;;;;;;18.42;11.20;;;2.50;99.90;;;;;;4898830;29;20032;-90
2022/03/04 02:26:29;;;;;;;19.85;11.65;;;2.50;99.90;;;;;;4899011;29;20510;-90
2022/03/04 02:28:55;;;;;;;19.70;11.48;;;2.50;99.90;;;;;;4898462;29;20056;-90
2022/03/04 02:31:21;;;;;;;19.75;11.77;;;2.50;99.90;;;;;;4898843;29;20407;-90
2022/03/04 02:33:48;;;;;;;20.58;11.98;;;2.50;99.90;;;;;;4898634;29;20037;-89
2022/03/04 02:36:14;;;;;;;18.90;11.85;;;2.40;99.90;;;;;;4898733;29;20476;-92
2022/03/04 02:38:40;;;;;;;20.02;12.45;;;2.40;99.90;;;;;;4901000;29;20048;-90
2022/03/04 02:41:06;;;;;;;19.80;11.35;;;2.40;99.90;;;;;;4899356;29;20041;-89
2022/03/04 02:43:33;;;;;;;19.05;11.55;;;2.30;99.90;;;;;;4899225;29;20036;-90
2022/03/04 02:45:58;;;;;;;18.13;10.98;;;2.30;99.90;;;;;;4898995;29;20096;-90
2022/03/04 02:48:24;;;;;;;18.92;10.93;;;2.30;99.90;;;;;;4899236;29;20029;-91
2022/03/04 02:50:50;;;;;;;18.75;10.88;;;2.30;99.90;;;;;;4898681;29;20036;-90
2022/03/04 02:53:16;;;;;;;24.13;11.68;;;2.30;99.90;;;;;;4899036;29;20044;-90
2022/03/04 02:55:42;;;;;;;19.35;10.95;;;2.30;99.90;;;;;;4899197;29;20491;-90
2022/03/04 02:58:07;;;;;;;16.80;10.60;;;2.20;99.90;;;;;;4883846;29;20052;-90
2022/03/04 03:00:34;;;;;;;17.85;10.68;;;2.30;99.90;;;;;;4899799;29;20044;-91
2022/03/04 03:03:00;;;;;;;19.98;12.52;;;2.20;99.90;;;;;;4893471;29;20032;-89
2022/03/04 03:05:26;;;;;;;16.70;9.25;;;2.20;99.90;;;;;;4907095;29;20036;-91
2022/03/04 03:07:51;;;;;;;19.13;10.60;;;2.20;99.90;;;;;;4910622;29;20029;-89
2022/03/04 03:10:17;;;;;;;16.85;10.05;;;2.10;99.90;;;;;;4910513;29;20396;-89
2022/03/04 03:12:44;;;;;;;19.42;11.93;;;2.10;99.90;;;;;;4911508;29;20037;-90
2022/03/04 03:15:10;;;;;;;16.80;10.75;;;2.00;99.90;;;;;;4910111;29;20056;-90
2022/03/04 03:17:36;;;;;;;17.45;9.73;;;2.00;99.90;;;;;;4905444;29;20569;-90
2022/03/04 03:20:04;;;;;;;15.10;8.63;;;2.00;99.90;;;;;;4909241;29;20068;-89
2022/03/04 03:22:30;;;;;;;17.85;10.77;;;1.90;99.90;;;;;;4904437;29;20056;-92
2022/03/04 03:24:56;;;;;;;18.23;10.63;;;1.90;99.90;;;;;;4902502;29;20044;-91
2022/03/04 03:27:21;;;;;;;17.65;10.25;;;1.90;99.90;;;;;;4902487;29;20041;-90
2022/03/04 03:29:47;;;;;;;17.40;10.20;;;1.90;99.90;;;;;;4901453;29;20431;-90
2022/03/04 03:32:13;;;;;;;16.80;9.65;;;1.80;99.90;;;;;;4901478;29;20048;-89
2022/03/04 03:34:40;;;;;;;16.98;9.30;;;1.80;99.90;;;;;;4901519;29;20392;-90
2022/03/04 03:37:07;;;;;;;16.65;10.75;;;1.80;99.90;;;;;;4901474;29;20044;-91
2022/03/04 03:39:33;;;;;;;17.98;10.57;;;1.80;99.90;;;;;;4902649;29;20029;-90
2022/03/04 03:42:00;;;;;;;18.85;10.75;;;1.70;99.90;;;;;;4901472;29;20064;-90
2022/03/04 03:44:25;;;;;;;17.55;10.45;;;1.70;99.90;;;;;;4901604;29;20552;-91
2022/03/04 03:46:51;;;;;;;18.48;10.30;;;1.70;99.90;;;;;;4901337;29;20084;-90
2022/03/04 03:49:17;;;;;;;15.63;9.18;;;1.70;99.90;;;;;;4901636;29;20041;-90
2022/03/04 03:51:43;;;;;;;18.73;10.02;;;1.70;99.90;;;;;;4901702;29;20693;-92
2022/03/04 03:54:08;;;;;;;18.55;9.90;;;1.60;99.90;;;;;;4901762;29;20048;-89
2022/03/04 03:56:34;;;;;;;20.83;10.95;;;1.60;99.90;;;;;;4901651;29;20487;-91
2022/03/04 03:59:00;;;;;;;17.58;10.27;;;1.50;99.90;;;;;;4905316;29;20554;-91
2022/03/04 04:01:26;;;;;;;17.00;10.25;;;1.60;99.90;;;;;;4901745;29;20040;-91
2022/03/04 04:03:52;;;;;;;18.58;10.05;;;1.50;99.90;;;;;;4901894;29;20032;-90
2022/03/04 04:06:18;;;;;;;19.92;11.57;;;1.50;99.90;;;;;;4914474;29;20128;-92
2022/03/04 04:08:44;;;;;;;20.75;10.80;;;1.50;99.90;;;;;;4910922;29;20029;-90
2022/03/04 04:11:09;;;;;;;15.85;9.57;;;1.50;99.90;;;;;;4902487;29;20055;-90
2022/03/04 04:13:35;;;;;;;18.40;10.25;;;1.40;99.90;;;;;;4902104;29;20039;-91
2022/03/04 04:16:01;;;;;;;19.02;10.35;;;1.40;99.90;;;;;;4902263;29;20045;-91
2022/03/04 04:18:27;;;;;;;17.25;10.13;;;1.40;99.90;;;;;;4902635;29;20494;-90
2022/03/04 04:20:52;;;;;;;19.40;10.65;;;1.40;99.90;;;;;;4912354;29;20028;-91
2022/03/04 04:23:18;;;;;;;17.23;11.25;;;1.30;99.90;;;;;;4912535;29;20033;-91
2022/03/04 04:25:44;;;;;;;19.20;11.77;;;1.30;99.90;;;;;;4912737;29;20044;-89
2022/03/04 04:28:09;;;;;;;18.70;11.02;;;1.30;99.90;;;;;;4909314;29;20066;-91
2022/03/04 04:30:35;;;;;;;19.80;11.02;;;1.30;99.90;;;;;;4904627;29;20051;-90
2022/03/04 04:33:01;;;;;;;19.13;10.60;;;1.30;99.90;;;;;;4906113;29;20055;-91
2022/03/04 04:35:27;;;;;;;17.65;9.25;;;1.20;99.90;;;;;;4917751;29;20043;-89
2022/03/04 04:37:53;;;;;;;20.60;11.70;;;1.20;99.90;;;;;;4920101;29;20044;-89
2022/03/04 04:40:18;;;;;;;19.98;10.60;;;1.20;99.90;;;;;;4918813;29;20036;-88
2022/03/04 04:42:44;;;;;;;18.80;11.77;;;1.20;99.90;;;;;;4917868;29;20040;-86
2022/03/04 04:45:10;;;;;;;19.98;11.52;;;1.20;99.90;;;;;;4913177;29;20040;-90
2022/03/04 04:47:36;;;;;;;20.42;11.38;;;1.10;99.90;;;;;;4908417;29;20140;-86
2022/03/04 04:50:03;;;;;;;17.85;10.45;;;1.20;99.90;;;;;;4915450;29;20033;-88
2022/03/04 04:52:28;;;;;;;19.05;10.70;;;1.10;99.90;;;;;;4908382;29;20037;-88
2022/03/04 04:54:54;;;;;;;18.98;11.15;;;1.10;99.90;;;;;;4907827;29;20032;-89
2022/03/04 04:57:20;;;;;;;19.42;10.98;;;1.10;99.90;;;;;;4912589;29;20515;-91
2022/03/04 04:59:45;;;;;;;20.25;10.98;;;1.10;99.90;;;;;;4917674;29;20020;-89
2022/03/04 05:02:11;;;;;;;20.05;12.05;;;1.10;99.90;;;;;;4917131;29;20071;-90
2022/03/04 05:04:37;;;;;;;19.67;10.65;;;1.10;99.90;;;;;;4908905;29;20487;-87
2022/03/04 05:07:03;;;;;;;20.88;11.13;;;1.00;99.90;;;;;;4908944;29;20451;-87
2022/03/04 05:09:29;;;;;;;19.40;10.65;;;1.00;99.90;;;;;;4915477;29;20027;-89
2022/03/04 05:11:54;;;;;;;19.75;10.85;;;1.00;99.90;;;;;;4923789;29;20056;-88
2022/03/04 05:14:20;;;;;;;18.75;10.63;;;1.00;99.90;;;;;;4923102;29;20036;-87
2022/03/04 05:16:46;;;;;;;19.25;10.98;;;1.00;99.90;;;;;;4923150;29;20063;-89
2022/03/04 05:19:11;;;;;;;18.83;11.07;;;0.90;99.90;;;;;;4922914;29;20445;-91
2022/03/04 05:21:37;;;;;;;28.30;12.18;;;0.90;99.90;;;;;;4920334;29;20045;-89
2022/03/04 05:24:06;;;;;;;20.95;11.82;;;0.90;99.90;;;;;;4922708;29;20017;-90
2022/03/04 05:26:37;;;;;;;21.50;11.43;;;0.90;99.90;;;;;;4921612;29;20044;-87
2022/03/04 05:29:06;;;;;;;19.92;11.23;;;0.90;99.90;;;;;;4916769;29;20053;-88
2022/03/04 05:31:32;;;;;;;19.95;11.30;;;0.90;99.90;;;;;;4919090;29;20073;-90
2022/03/04 05:33:57;;;;;;;18.35;10.75;;;0.80;99.90;;;;;;4916037;29;20078;-90
2022/03/04 05:36:23;;;;;;;21.67;11.40;;;0.80;99.90;;;;;;4906584;29;20028;-91
2022/03/04 05:38:50;;;;;;;21.63;11.18;;;0.80;99.90;;;;;;4901851;29;20232;-90
2022/03/04 05:41:17;;;;;;;18.17;11.07;;;0.80;99.90;;;;;;4901231;29;20032;-89
2022/03/04 05:43:44;;;;;;;18.38;10.88;;;0.80;99.90;;;;;;4900643;29;20041;-92
2022/03/04 05:46:10;;;;;;;22.60;11.88;;;0.70;99.90;;;;;;4900563;29;20033;-90
2022/03/04 05:48:36;;;;;;;17.55;10.70;;;0.70;99.90;;;;;;4905383;29;20024;-90
2022/03/04 05:51:03;;;;;;;18.30;10.70;;;0.70;99.90;;;;;;4899848;29;20036;-91
2022/03/04 05:53:30;;;;;;;18.60;11.43;;;0.70;99.90;;;;;;4900232;29;20040;-90
2022/03/04 05:55:56;;;;;;;19.73;11.40;;;0.70;99.90;;;;;;4899891;29;20041;-90
2022/03/04 05:58:22;;;;;;;22.02;12.73;;;0.70;99.90;;;;;;4899622;29;20069;-90
2022/03/04 06:00:47;;;;;;;20.25;11.80;;;0.70;99.90;;;;;;4899676;29;20487;-91
2022/03/04 06:03:13;;;;;;;19.58;11.13;;;0.70;99.90;;;;;;4899980;29;20037;-90
2022/03/04 06:05:39;;;;;;;20.50;11.52;;;0.70;99.90;;;;;;4900599;29;20029;-90
2022/03/04 06:08:05;;;;;;;17.63;10.50;;;0.60;99.90;;;;;;4900144;29;20060;-91
2022/03/04 06:10:30;;;;;;;18.83;11.05;;;0.60;99.90;;;;;;4899812;29;20032;-90
2022/03/04 06:12:56;;;;;;;19.25;9.65;;;0.70;99.90;;;;;;4883577;29;20044;-90
2022/03/04 06:15:22;;;;;;;19.92;11.88;;;0.60;99.90;;;;;;4899354;29;20460;-89
2022/03/04 06:17:49;;;;;;;19.50;11.45;;;0.60;99.90;;;;;;4899528;29;20033;-91
2022/03/04 06:20:16;;;;;;;20.52;10.45;;;0.60;99.90;;;;;;4883693;29;20124;-90
2022/03/04 06:22:42;;;;;;;19.35;10.90;;;0.60;99.90;;;;;;4899405;29;20024;-90
2022/03/04 06:25:09;;;;;;;18.60;10.82;;;0.60;99.90;;;;;;4898710;29;20100;-89
2022/03/04 06:27:35;;;;;;;20.42;11.77;;;0.60;99.90;;;;;;4898476;29;20029;-90
2022/03/04 06:30:00;;;;;;;21.80;10.75;;;0.60;99.90;;;;;;4898377;29;20463;-90
2022/03/04 06:32:26;;;;;;;19.00;10.48;;;0.60;99.90;;;;;;4898847;29;20045;-89
2022/03/04 06:34:52;;;;;;;20.92;11.88;;;0.60;99.90;;;;;;4899146;29;20032;-90
2022/03/04 06:37:17;;;;;;;21.48;11.85;;;0.50;99.90;;;;;;4898935;29;20084;-92
2022/03/04 06:39:43;;;;;;;19.33;10.52;;;0.60;99.90;;;;;;4899262;29;20044;-90
2022/03/04 06:42:09;;;;;;;20.63;11.32;;;0.50;99.90;;;;;;4901630;29;20060;-89
2022/03/04 06:44:35;;;;;;;18.55;11.05;;;0.60;99.90;;;;;;4902692;29;20119;-91
2022/03/04 06:47:00;;;;;;;21.77;11.30;;;0.60;99.90;;;;;;4903251;29;20041;-90
2022/03/04 06:49:26;;;;;;;18.58;10.82;;;0.60;99.90;;;;;;4903247;29;20037;-91
2022/03/04 06:51:51;;;;;;;19.58;10.55;;;0.60;99.90;;;;;;4903256;29;20139;-93
2022/03/04 06:54:17;;;;;;;20.95;11.43;;;0.60;99.90;;;;;;4902489;29;20029;-90
2022/03/04 06:56:43;;;;;;;24.45;12.18;;;0.60;99.90;;;;;;4905407;29;20048;-89
2022/03/04 06:59:09;;;;;;;21.08;12.00;;;0.60;99.90;;;;;;4916450;29;20045;-90
2022/03/04 07:02:14;;;;;;;;;;;;;;;;;;;;;
2022/03/04 07:04:55;;;;;;;20.77;11.45;;;0.70;99.90;;;;;;4926060;29;20115;-91
2022/03/04 07:07:27;;;;;;;21.88;12.50;;;0.70;99.90;;;;;;4923552;29;20111;-93
2022/03/04 07:09:53;;;;;;;21.85;13.10;;;0.70;99.90;;;;;;4917574;29;20044;-93
2022/03/04 07:12:19;;;;;;;20.55;11.85;;;0.70;99.90;;;;;;4917267;29;20050;-94
2022/03/04 07:14:44;;;;;;;20.90;11.90;;;0.80;99.90;;;;;;4905118;29;20091;-93
2022/03/04 07:17:10;;;;;;;21.05;11.65;;;0.80;99.90;;;;;;4900824;29;20095;-91
2022/03/04 07:19:36;;;;;;;22.38;12.85;;;0.80;99.90;;;;;;4908347;29;20044;-93
2022/03/04 07:22:01;;;;;;;22.55;12.30;;;0.80;99.90;;;;;;4907647;29;20197;-92
2022/03/04 07:24:27;;;;;;;22.10;12.23;;;0.90;99.90;;;;;;4902470;29;20036;-91
2022/03/04 07:26:53;;;;;;;20.48;11.55;;;0.90;99.90;;;;;;4906902;29;20036;-92
2022/03/04 07:29:19;;;;;;;23.08;12.88;;;0.90;99.90;;;;;;4896781;29;20067;-90
2022/03/04 07:31:44;;;;;;;23.85;13.30;;;1.00;99.90;;;;;;4909643;29;20049;-92
2022/03/04 07:34:10;;;;;;;21.80;12.55;;;1.00;99.90;;;;;;4911970;29;20040;-93
2022/03/04 07:36:38;;;;;;;23.92;13.80;;;1.10;99.90;;;;;;4909848;29;20368;-93
2022/03/04 07:39:04;;;;;;;21.35;12.82;;;1.10;99.90;;;;;;4910046;29;20119;-92
2022/03/04 07:41:33;;;;;;;22.90;12.80;;;1.20;99.90;;;;;;4902246;29;20068;-92
2022/03/04 07:43:59;;;;;;;22.70;13.68;;;1.30;99.90;;;;;;4903064;29;20796;-91
2022/03/04 07:46:25;;;;;;;22.10;12.45;;;1.40;99.90;;;;;;4889524;29;20041;-90
2022/03/04 07:48:51;;;;;;;22.88;13.73;;;1.50;99.90;;;;;;4888788;29;20471;-90
2022/03/04 07:51:17;;;;;;;24.38;13.38;;;1.50;99.90;;;;;;4889299;29;20047;-92
2022/03/04 07:54:09;;;;;;;24.52;13.98;;;1.60;99.90;;;;;;4890583;29;20040;-94
2022/03/04 07:56:34;;;;;;;22.55;13.10;;;1.70;99.90;;;;;;4885948;29;20064;-91
2022/03/04 07:59:01;;;;;;;26.42;14.95;;;1.80;99.90;;;;;;4909150;29;20047;-92
2022/03/04 08:01:27;;;;;;;26.73;15.32;;;2.00;99.90;;;;;;4896942;29;20042;-94
2022/03/04 08:03:52;;;;;;;28.75;14.27;;;2.00;99.90;;;;;;4901512;29;20036;-94
2022/03/04 08:06:21;;;;;;;24.83;14.02;;;2.10;99.90;;;;;;4901245;29;20063;-93
2022/03/04 08:08:47;;;;;;;22.83;14.00;;;2.20;99.90;;;;;;4906862;29;20063;-91
2022/03/04 08:11:47;;;;;;;21.83;12.38;;;2.30;99.90;;;;;;4887066;29;20072;-93
2022/03/04 08:14:16;;;;;;;26.58;13.82;;;2.40;99.90;;;;;;4888736;29;20129;-92
2022/03/04 08:16:44;;;;;;;21.88;13.38;;;2.50;99.90;;;;;;4889410;29;20067;-91
2022/03/04 08:21:35;;;;;;;26.25;15.10;;;2.50;99.90;;;;;;5031094;23;20075;-92
2022/03/04 08:24:12;;;;;;;28.40;15.73;;;2.40;99.90;;;;;;4898684;29;20033;-95
2022/03/04 08:26:38;;;;;;;26.58;16.60;;;2.40;99.90;;;;;;4897467;29;20140;-95
2022/03/04 08:29:13;;;;;;;26.20;15.43;;;2.40;99.90;;;;;;4902442;29;20095;-92
2022/03/04 08:31:38;;;;;;;27.90;17.08;;;2.40;99.90;;;;;;4897510;29;20033;-93
2022/03/04 08:34:05;;;;;;;29.88;16.98;;;2.40;99.90;;;;;;4897854;29;20392;-93
2022/03/04 08:36:32;;;;;;;25.60;14.93;;;2.40;99.90;;;;;;4866503;29;20033;-90
2022/03/04 08:39:02;;;;;;;26.08;13.88;;;2.40;99.90;;;;;;4866162;29;20035;-91
2022/03/04 08:41:29;;;;;;;24.77;14.68;;;2.40;99.90;;;;;;4866519;29;20037;-93
2022/03/04 08:43:55;;;;;;;24.85;14.20;;;2.50;99.90;;;;;;4867887;29;20070;-90
2022/03/04 08:46:21;;;;;;;25.58;15.10;;;2.60;99.90;;;;;;4908410;29;20032;-90
2022/03/04 08:48:47;;;;;;;26.58;15.55;;;2.60;99.90;;;;;;4920758;29;20036;-90
2022/03/04 08:51:12;;;;;;;23.15;13.15;;;2.70;99.90;;;;;;4919820;29;20039;-90
2022/03/04 08:53:38;;;;;;;25.33;14.18;;;2.70;99.90;;;;;;4918754;29;20565;-90
2022/03/04 08:56:05;;;;;;;26.88;16.05;;;2.70;99.90;;;;;;4907579;29;20040;-90
2022/03/04 08:58:30;;;;;;;22.33;13.38;;;2.80;99.90;;;;;;4899958;29;20096;-90
2022/03/04 09:00:56;;;;;;;22.63;14.38;;;2.90;99.90;;;;;;4897276;29;20036;-90
2022/03/04 09:03:22;;;;;;;26.02;14.75;;;3.00;99.90;;;;;;4896622;29;20113;-91
2022/03/04 09:05:48;;;;;;;23.20;14.10;;;3.00;99.90;;;;;;4909700;29;20029;-90
2022/03/04 09:08:14;;;;;;;24.88;14.75;;;3.10;99.90;;;;;;4900099;29;20055;-90
2022/03/04 09:10:39;;;;;;;22.30;13.32;;;3.20;99.90;;;;;;4896560;29;20029;-90
2022/03/04 09:13:05;;;;;;;24.90;15.15;;;3.30;99.90;;;;;;4898170;29;20040;-91
2022/03/04 09:15:32;;;;;;;24.42;15.15;;;3.30;99.90;;;;;;4882646;29;20060;-90
2022/03/04 09:17:57;;;;;;;23.63;14.18;;;3.40;99.90;;;;;;4897845;29;20044;-92
2022/03/04 09:20:23;;;;;;;22.40;13.50;;;3.50;99.90;;;;;;4885678;29;20071;-92
2022/03/04 09:22:49;;;;;;;26.30;16.00;;;3.60;99.90;;;;;;4884478;29;20048;-93
2022/03/04 09:25:15;;;;;;;29.63;16.20;;;3.70;99.90;;;;;;4910609;29;20044;-92
2022/03/04 09:27:46;;;;;;;27.48;14.98;;;3.70;99.90;;;;;;4884195;29;20037;-92
2022/03/04 09:30:12;;;;;;;25.25;14.90;;;3.80;99.90;;;;;;4922715;29;20483;-92
2022/03/04 09:32:39;;;;;;;24.92;15.27;;;3.90;99.90;;;;;;4896001;29;20106;-87
2022/03/04 09:35:06;;;;;;;27.38;16.17;;;4.00;99.90;;;;;;4883948;29;20085;-89
2022/03/04 09:37:37;;;;;;;27.00;17.13;;;4.90;99.90;;;;;;4907752;29;20060;-91
2022/03/04 09:40:05;;;;;;;24.20;15.00;;;6.60;99.90;;;;;;4908350;29;20032;-93
2022/03/04 09:42:32;;;;;;;24.88;16.10;;;8.30;99.90;;;;;;4896212;29;20400;-91
2022/03/04 09:44:58;;;;;;;22.73;15.73;;;9.70;99.90;;;;;;4881314;29;20640;-91
2022/03/04 09:47:24;;;;;;;24.00;16.05;;;10.80;99.90;;;;;;4901246;29;20043;-90
2022/03/04 09:49:53;;;;;;;21.48;14.55;;;11.70;99.90;;;;;;4895704;29;20483;-91
2022/03/04 09:52:19;;;;;;;22.13;15.02;;;12.40;99.90;;;;;;4895115;29;20460;-90
2022/03/04 09:54:50;;;;;;;21.33;14.40;;;13.10;99.90;;;;;;4895244;29;20034;-91
2022/03/04 09:57:18;;;;;;;22.17;15.32;;;13.80;99.90;;;;;;4892626;29;20037;-92
2022/03/04 09:59:44;;;;;;;22.45;16.50;;;14.40;99.90;;;;;;4889248;29;20120;-93
2022/03/04 10:02:12;;;;;;;21.17;15.25;;;14.60;99.90;;;;;;4881497;29;20029;-91
2022/03/04 10:04:39;;;;;;;21.50;15.13;;;15.10;99.90;;;;;;4898009;29;20052;-91
2022/03/04 10:07:10;;;;;;;18.52;13.23;;;15.40;99.80;;;;;;4909770;29;20076;-92
2022/03/04 10:09:44;;;;;;;18.48;13.30;;;15.90;99.20;;;;;;4900226;29;20060;-91
2022/03/04 10:12:12;;;;;;;16.92;12.23;;;16.30;98.10;;;;;;4881629;29;20053;-91
2022/03/04 10:15:09;;;;;;;18.52;13.80;;;16.60;97.20;;;;;;4878763;29;20032;-91
2022/03/04 10:17:37;;;;;;;19.15;14.13;;;16.80;95.50;;;;;;4896479;29;20472;-92
2022/03/04 10:20:14;;;;;;;19.02;12.95;;;17.00;94.60;;;;;;4888713;29;20123;-91
2022/03/04 10:22:45;;;;;;;22.40;14.00;;;17.10;94.00;;;;;;4913500;29;20041;-93
2022/03/04 10:25:36;;;;;;;20.30;14.13;;;17.30;92.80;;;;;;4881455;29;20033;-91
2022/03/04 10:28:18;;;;;;;15.60;12.30;;;17.40;91.80;;;;;;4891307;29;20154;-92
2022/03/04 10:30:54;;;;;;;17.42;12.82;;;17.40;91.00;;;;;;4931165;23;20064;-92
2022/03/04 10:33:22;;;;;;;18.35;13.88;;;17.50;90.70;;;;;;4880182;29;20044;-94
2022/03/04 10:36:09;;;;;;;16.85;13.35;;;17.70;89.70;;;;;;4879812;29;20045;-93
2022/03/04 10:38:36;;;;;;;17.83;13.13;;;17.80;86.80;;;;;;4862128;29;20123;-96
2022/03/04 10:41:20;;;;;;;17.48;12.95;;;17.80;86.50;;;;;;4877018;29;20097;-92
2022/03/04 10:43:46;;;;;;;16.40;11.68;;;18.00;85.90;;;;;;4877221;29;20080;-91
2022/03/04 10:46:14;;;;;;;16.10;11.77;;;18.10;85.70;;;;;;4877176;29;20037;-93
2022/03/04 10:48:50;;;;;;;17.55;13.45;;;18.20;85.00;;;;;;4876954;29;20063;-93
2022/03/04 10:51:39;;;;;;;18.83;14.15;;;18.20;83.20;;;;;;4877792;29;20092;-94
2022/03/04 10:54:14;;;;;;;17.33;14.10;;;18.20;82.00;;;;;;4882536;29;20123;-94
2022/03/04 10:57:20;;;;;;;18.13;13.80;;;18.30;81.70;;;;;;4888321;29;20040;-95
2022/03/04 10:59:57;;;;;;;17.40;13.85;;;18.60;81.10;;;;;;4850836;29;20045;-91
2022/03/04 11:02:43;;;;;;;15.25;12.32;;;18.90;80.40;;;;;;4880304;29;20037;-94
2022/03/04 11:05:09;;;;;;;20.25;15.98;;;19.10;79.20;;;;;;4903185;29;20039;-93
2022/03/04 11:07:37;;;;;;;18.80;14.95;;;19.00;77.20;;;;;;4905226;29;20085;-93
2022/03/04 11:10:03;;;;;;;16.88;13.73;;;18.80;76.70;;;;;;4913830;29;20044;-91
2022/03/04 11:12:29;;;;;;;15.50;12.50;;;18.90;77.00;;;;;;4913147;29;20057;-91
2022/03/04 11:15:01;;;;;;;14.73;12.40;;;19.10;76.70;;;;;;4923283;29;20037;-94
2022/03/04 11:17:29;;;;;;;15.93;12.60;;;19.50;76.10;;;;;;4893001;29;20060;-93
2022/03/04 11:19:56;;;;;;;16.73;13.15;;;19.80;75.40;;;;;;4887684;29;20459;-90
2022/03/04 11:22:22;;;;;;;17.70;13.63;;;20.00;74.40;;;;;;4881674;29;20041;-93
2022/03/04 11:24:47;;;;;;;17.67;13.85;;;19.90;73.80;;;;;;4886990;29;20060;-93
2022/03/04 11:27:16;;;;;;;16.88;13.13;;;20.00;72.90;;;;;;4885905;29;20113;-93
2022/03/04 11:29:42;;;;;;;16.83;12.88;;;20.00;72.50;;;;;;4871066;29;20419;-93
2022/03/04 11:32:08;;;;;;;17.05;13.82;;;20.10;72.00;;;;;;4898632;29;20045;-93
2022/03/04 11:34:41;;;;;;;16.10;13.05;;;20.00;71.60;;;;;;4901488;29;20432;-92
2022/03/04 11:37:18;;;;;;;17.42;14.07;;;20.20;72.20;;;;;;4913426;29;20494;-94
2022/03/04 11:43:14;;;;;;;16.80;13.30;;;20.20;69.80;;;;;;5690754;23;20523;-93
2022/03/04 11:45:43;;;;;;;17.90;14.18;;;20.10;70.70;;;;;;4912972;29;20107;-93
2022/03/04 11:48:40;;;;;;;15.63;12.68;;;20.50;69.90;;;;;;4912631;29;20048;-91
2022/03/04 11:54:30;;;;;;;14.35;12.23;;;20.90;68.60;;;;;;5586847;23;20060;-92
2022/03/04 11:56:56;;;;;;;14.27;11.98;;;21.30;68.00;;;;;;4926560;29;20051;-91
2022/03/04 11:59:21;;;;;;;14.85;12.52;;;21.40;67.60;;;;;;4911584;29;20407;-92
2022/03/04 12:01:48;;;;;;;14.68;12.52;;;21.50;67.30;;;;;;4924077;29;20044;-90
2022/03/04 12:04:18;;;;;;;15.88;12.82;;;21.50;66.50;;;;;;4913605;29;20022;-92
2022/03/04 12:07:08;;;;;;;16.95;14.30;;;21.60;66.00;;;;;;4915899;29;20041;-91
2022/03/04 12:09:34;;;;;;;15.23;13.40;;;21.40;65.30;;;;;;4896591;29;20053;-92
2022/03/04 12:12:16;;;;;;;15.75;12.75;;;21.30;65.80;;;;;;4909677;29;20110;-91
2022/03/04 12:14:49;;;;;;;15.02;12.63;;;21.40;65.00;;;;;;4894918;29;20396;-95
2022/03/04 12:17:25;;;;;;;15.30;12.80;;;21.50;64.90;;;;;;4901972;29;20482;-95
2022/03/04 12:22:46;;;;;;;15.68;12.65;;;21.50;64.20;;;;;;4872522;29;20052;-94
2022/03/04 12:25:11;;;;;;;15.60;13.18;;;21.70;64.20;;;;;;4904710;29;20047;-94
2022/03/04 12:27:44;;;;;;;14.55;12.07;;;21.80;64.40;;;;;;4903635;29;20432;-92
2022/03/04 12:30:19;;;;;;;14.50;13.00;;;22.00;65.00;;;;;;4903689;29;20068;-92
2022/03/04 12:32:50;;;;;;;15.75;13.43;;;22.20;64.00;;;;;;4903324;29;20518;-93
2022/03/04 12:35:17;;;;;;;18.77;14.82;;;22.00;63.20;;;;;;4896547;29;20093;-92
2022/03/04 12:37:43;;;;;;;15.68;12.55;;;22.00;63.20;;;;;;4907086;29;20033;-93
2022/03/04 12:40:12;;;;;;;14.13;12.30;;;22.10;63.90;;;;;;4903225;29;20032;-93
2022/03/04 12:42:38;;;;;;;16.30;13.80;;;22.30;62.70;;;;;;4901183;29;20041;-93
2022/03/04 12:45:13;;;;;;;15.73;12.85;;;22.30;62.00;;;;;;4900164;29;20093;-93
2022/03/04 12:47:40;;;;;;;14.90;11.82;;;22.30;61.30;;;;;;4899869;29;20403;-93
2022/03/04 12:50:06;;;;;;;16.42;13.15;;;22.20;61.20;;;;;;4900278;29;20025;-94
2022/03/04 12:52:34;;;;;;;15.48;13.13;;;22.20;61.80;;;;;;4899927;29;20049;-92